Klagetoh, Arizona
Current Conditions -  °F | °C
As of 11:53 AM on Friday 24 Oct 2014 (Local Time) from KRQE Reporting Station
Clear Clear  
Wind Chill: 70°   Ceiling: Unl
Heat Index: 70°   Visibility: 10mi
Dew Point: 32°   Wind: 0mph
Humidity: 25%   Direction: NA
Pressure: 30.41"   Gusts: NA
Location:  35.6053°N, 109.458°W
Report Text: KRQE 241753Z AUTO 00000KT 10SM CLR 21/00 A3041 RMK AO2 SLP218 T02110000 10211 21011 58004 TSNO
Loading
Personal Weather Stations






























Interactive Weather Map
Tropical Storm Tracking
New forecast layout! Learn more

10-Day Weather Forecast

Advertisements
Track Severe Weather on mobile